Time;durP1;ratioP1;P1;durP2;ratioP2;P2;SDS_P1;SDS_P2;PMS_P1;PMS_P2;Temp;Humidity;BMP_temperature;BMP_pressure;BME280_temperature;BME280_humidity;BME280_pressure;Samples;Min_cycle;Max_cycle;Signal;HPM_P1;HPM_P2
2023/12/02 00:02:13;;;;;;;83.43;42.25;;;;;;;5.26;94.51;99178.63;5132959;27;20027;-40
2023/12/02 00:04:39;;;;;;;75.50;41.20;;;;;;;5.08;93.51;99186.88;5133271;28;20022;-39
2023/12/02 00:07:04;;;;;;;76.70;40.83;;;;;;;5.02;94.00;99204.25;5133350;28;20080;-40
2023/12/02 00:09:30;;;;;;;82.22;43.28;;;;;;;4.92;94.16;99195.81;5133255;28;20398;-38
2023/12/02 00:11:55;;;;;;;81.50;42.92;;;;;;;4.92;92.76;99185.25;5132881;28;20042;-39
2023/12/02 00:14:21;;;;;;;78.30;41.05;;;;;;;4.84;92.12;99193.25;5132712;28;20019;-39
2023/12/02 00:16:46;;;;;;;70.40;38.80;;;;;;;4.65;93.47;99194.56;5133079;28;20427;-39
2023/12/02 00:19:11;;;;;;;68.70;37.85;;;;;;;4.69;94.27;99195.84;5132203;28;20031;-39
2023/12/02 00:21:37;;;;;;;69.57;37.88;;;;;;;5.02;94.32;99203.44;5132879;27;20034;-39
2023/12/02 00:24:02;;;;;;;70.60;38.17;;;;;;;4.86;93.98;99197.34;5114318;28;20023;-39
2023/12/02 00:26:28;;;;;;;79.93;39.92;;;;;;;4.88;94.26;99190.06;5132851;28;20027;-37
2023/12/02 00:28:53;;;;;;;73.80;39.67;;;;;;;4.76;95.28;99186.25;5132757;28;20023;-36
2023/12/02 00:31:19;;;;;;;71.70;36.40;;;;;;;4.69;94.62;99182.69;5132737;28;20047;-39
2023/12/02 00:33:44;;;;;;;63.28;34.88;;;;;;;4.70;94.79;99173.75;5132566;28;20051;-38
2023/12/02 00:36:10;;;;;;;67.68;35.13;;;;;;;4.58;94.42;99168.09;5132508;28;20076;-38
2023/12/02 00:38:36;;;;;;;71.45;35.80;;;;;;;4.66;95.15;99175.13;5132793;28;20027;-39
2023/12/02 00:41:01;;;;;;;68.65;36.35;;;;;;;4.83;95.24;99173.94;5132482;28;20027;-39
2023/12/02 00:43:26;;;;;;;66.63;35.47;;;;;;;4.97;95.73;99158.31;5132341;28;20467;-39
2023/12/02 00:45:52;;;;;;;68.20;36.25;;;;;;;5.00;96.55;99164.06;5132630;28;20031;-40
2023/12/02 00:48:17;;;;;;;62.03;34.47;;;;;;;4.84;93.97;99151.88;5132716;28;20058;-39
2023/12/02 00:50:43;;;;;;;65.32;34.50;;;;;;;4.79;94.62;99159.50;5131977;28;20034;-37
2023/12/02 00:53:08;;;;;;;65.82;34.22;;;;;;;4.88;94.94;99147.88;5132291;28;20080;-39
2023/12/02 00:55:34;;;;;;;69.38;35.78;;;;;;;4.87;95.29;99171.78;5092747;27;1123199;-40
2023/12/02 00:57:59;;;;;;;71.07;36.75;;;;;;;4.75;95.04;99160.06;5133348;27;20042;-39
2023/12/02 01:00:24;;;;;;;76.40;39.63;;;;;;;5.02;94.62;99148.88;5133163;27;20038;-37
2023/12/02 01:02:50;;;;;;;72.25;38.60;;;;;;;4.83;94.49;99149.41;5133443;27;20023;-41
2023/12/02 01:05:15;;;;;;;71.80;37.00;;;;;;;4.80;95.28;99149.78;5133102;27;20099;-40
2023/12/02 01:07:41;;;;;;;69.53;37.17;;;;;;;4.87;94.53;99155.97;5133304;27;20050;-40
2023/12/02 01:10:07;;;;;;;68.85;35.70;;;;;;;4.71;93.83;99167.50;5132929;27;20484;-40
2023/12/02 01:12:32;;;;;;;75.68;37.47;;;;;;;4.47;94.60;99173.78;5132725;27;20019;-40
2023/12/02 01:14:57;;;;;;;72.25;38.60;;;;;;;4.47;95.25;99163.25;5132029;27;20068;-40
2023/12/02 01:17:22;;;;;;;75.22;38.55;;;;;;;4.67;94.98;99174.13;5132886;27;20406;-40
2023/12/02 01:19:48;;;;;;;64.05;37.40;;;;;;;4.52;95.54;99155.66;5132855;27;20041;-39
2023/12/02 01:22:14;;;;;;;70.25;37.42;;;;;;;4.43;94.81;99146.16;5132877;27;20081;-39
2023/12/02 01:24:39;;;;;;;67.22;37.30;;;;;;;4.36;95.39;99148.72;5132714;27;20049;-39
2023/12/02 01:27:04;;;;;;;70.15;37.10;;;;;;;4.27;95.60;99155.84;5132670;27;20356;-40
2023/12/02 01:29:30;;;;;;;65.82;34.80;;;;;;;4.33;95.52;99162.22;5114131;27;20514;-40
2023/12/02 01:31:55;;;;;;;71.72;36.35;;;;;;;4.31;96.51;99159.75;5132798;27;20022;-39
2023/12/02 01:34:20;;;;;;;58.67;32.85;;;;;;;4.51;96.35;99161.91;5132543;27;20404;-39
2023/12/02 01:36:46;;;;;;;66.93;33.35;;;;;;;4.39;95.79;99155.44;5132610;27;20023;-37
2023/12/02 01:39:12;;;;;;;61.88;33.22;;;;;;;4.46;96.30;99148.47;5132315;27;20092;-37
2023/12/02 01:41:38;;;;;;;67.10;34.42;;;;;;;4.56;95.03;99149.00;5132314;27;20146;-40
2023/12/02 01:44:04;;;;;;;63.53;33.55;;;;;;;4.55;94.16;99150.03;5132621;27;20015;-40
2023/12/02 01:46:29;;;;;;;61.88;33.20;;;;;;;4.68;95.10;99160.78;5132155;27;20406;-40
2023/12/02 01:48:58;;;;;;;64.45;33.85;;;;;;;4.63;93.66;99147.31;5132008;27;20030;-40
2023/12/02 01:51:23;;;;;;;62.53;33.63;;;;;;;4.34;95.29;99140.16;5131658;27;20555;-40
2023/12/02 01:53:49;;;;;;;61.78;32.83;;;;;;;4.41;95.05;99156.88;5132229;27;20048;-40
2023/12/02 01:56:14;;;;;;;59.97;32.28;;;;;;;4.50;96.08;99141.84;5132008;27;20134;-40
2023/12/02 01:58:40;;;;;;;55.50;30.27;;;;;;;4.59;95.14;99148.66;5132201;27;20080;-40
2023/12/02 02:01:05;;;;;;;60.72;31.35;;;;;;;4.56;94.53;99145.56;5131835;27;20027;-40
2023/12/02 02:03:32;;;;;;;58.42;30.67;;;;;;;4.55;96.27;99141.28;5132288;27;20078;-40
2023/12/02 02:05:57;;;;;;;55.63;31.80;;;;;;;4.56;95.29;99141.09;5132020;27;20019;-39
2023/12/02 02:08:23;;;;;;;58.90;33.35;;;;;;;4.74;95.86;99134.69;5132260;27;20072;-39
2023/12/02 02:10:55;;;;;;;56.20;31.00;;;;;;;4.66;95.30;99144.31;5132335;27;20023;-39
2023/12/02 02:13:20;;;;;;;59.80;32.40;;;;;;;4.47;96.29;99140.38;5132265;27;20027;-39
2023/12/02 02:15:46;;;;;;;59.83;32.17;;;;;;;4.60;95.93;99142.38;5132208;27;20023;-40
2023/12/02 02:18:11;;;;;;;61.60;30.90;;;;;;;4.50;96.30;99144.47;5132524;27;20106;-40
2023/12/02 02:20:36;;;;;;;61.15;31.27;;;;;;;4.32;96.41;99113.16;5132216;27;20053;-39
2023/12/02 02:23:02;;;;;;;58.05;31.48;;;;;;;4.55;97.24;99138.66;5132153;27;20019;-40
2023/12/02 02:25:27;;;;;;;55.67;30.17;;;;;;;4.49;97.01;99116.47;5132130;27;20023;-39
2023/12/02 02:27:52;;;;;;;58.92;30.23;;;;;;;4.56;96.56;99109.50;5132299;27;20023;-39
2023/12/02 02:30:19;;;;;;;57.65;29.08;;;;;;;4.69;94.70;99111.50;5132094;27;20019;-39
2023/12/02 02:32:44;;;;;;;51.08;27.35;;;;;;;4.57;95.85;99108.50;5131700;27;20023;-39
2023/12/02 02:35:10;;;;;;;49.17;27.95;;;;;;;4.61;96.16;99109.78;5131259;27;20034;-40
2023/12/02 02:37:35;;;;;;;58.65;31.20;;;;;;;4.79;96.29;99117.31;5131488;27;20038;-39
2023/12/02 02:40:00;;;;;;;56.70;31.17;;;;;;;4.78;95.22;99118.34;5131375;28;20486;-39
2023/12/02 02:42:26;;;;;;;48.67;27.15;;;;;;;4.60;95.75;99102.03;5131157;28;20102;-39
2023/12/02 02:44:51;;;;;;;55.75;29.92;;;;;;;4.84;96.95;99095.69;5131750;28;20034;-39
2023/12/02 02:47:16;;;;;;;52.90;28.67;;;;;;;4.74;95.86;99092.50;5131577;28;20030;-39
2023/12/02 02:49:42;;;;;;;49.97;27.13;;;;;;;4.50;95.24;99092.56;5131083;28;20023;-40
2023/12/02 02:52:07;;;;;;;56.13;30.00;;;;;;;4.30;96.43;99091.44;5131468;28;20022;-40
2023/12/02 02:54:33;;;;;;;52.55;28.25;;;;;;;4.43;96.69;99086.38;5123901;27;20123;-39
2023/12/02 02:56:58;;;;;;;48.00;27.40;;;;;;;4.23;98.04;99101.88;5113970;28;20015;-39
2023/12/02 02:59:24;;;;;;;51.22;28.60;;;;;;;4.56;97.70;99084.97;5131488;28;20038;-38
2023/12/02 03:01:49;;;;;;;51.30;28.05;;;;;;;4.85;95.82;99079.66;5131155;28;20019;-39
2023/12/02 03:04:14;;;;;;;48.58;26.85;;;;;;;4.70;94.65;99074.44;5131263;28;20031;-39
2023/12/02 03:06:40;;;;;;;53.22;27.38;;;;;;;4.53;95.04;99083.47;5131270;28;20473;-36
2023/12/02 03:09:06;;;;;;;54.70;27.20;;;;;;;4.37;94.82;99062.59;5131412;28;20425;-38
2023/12/02 03:11:32;;;;;;;49.83;25.83;;;;;;;4.18;96.18;99070.00;5131600;28;20042;-38
2023/12/02 03:13:57;;;;;;;49.25;26.20;;;;;;;4.24;96.48;99076.38;5130863;28;20110;-41
2023/12/02 03:16:23;;;;;;;49.88;26.90;;;;;;;4.33;96.45;99063.94;5130944;28;20118;-40
2023/12/02 03:18:48;;;;;;;47.20;25.40;;;;;;;4.38;95.68;99064.19;5131281;28;20027;-40
2023/12/02 03:21:14;;;;;;;46.42;26.35;;;;;;;4.47;96.86;99069.25;5131397;28;20027;-39
2023/12/02 03:23:40;;;;;;;45.35;24.52;;;;;;;4.49;94.61;99063.75;5131263;28;20138;-40
2023/12/02 03:26:05;;;;;;;44.97;24.90;;;;;;;4.50;95.59;99071.50;5131129;28;20062;-40
2023/12/02 03:28:31;;;;;;;42.80;23.95;;;;;;;4.35;94.72;99086.47;5112560;28;20027;-39
2023/12/02 03:30:56;;;;;;;42.92;23.88;;;;;;;4.28;95.16;99098.72;5130865;28;20019;-40
2023/12/02 03:33:21;;;;;;;42.78;24.55;;;;;;;4.18;95.26;99077.91;5131095;27;20110;-39
2023/12/02 03:35:47;;;;;;;48.92;26.35;;;;;;;4.38;96.80;99067.69;5131079;28;20087;-40
2023/12/02 03:38:12;;;;;;;53.90;28.00;;;;;;;4.77;95.11;99065.78;5132969;27;20051;-37
2023/12/02 03:40:38;;;;;;;46.90;26.10;;;;;;;4.57;95.79;99066.34;5134934;27;20407;-40
2023/12/02 03:43:03;;;;;;;48.17;26.23;;;;;;;4.63;94.75;99076.16;5135039;27;20027;-40
2023/12/02 03:45:29;;;;;;;50.95;27.52;;;;;;;4.70;94.43;99070.94;5134716;27;20019;-40
2023/12/02 03:47:54;;;;;;;52.30;26.75;;;;;;;4.46;93.28;99080.75;5134650;27;20030;-40
2023/12/02 03:50:19;;;;;;;47.78;25.17;;;;;;;4.41;93.87;99082.31;5134408;27;20541;-40
2023/12/02 03:52:45;;;;;;;48.00;26.65;;;;;;;4.30;93.66;99089.66;5134606;27;20482;-40
2023/12/02 03:55:10;;;;;;;54.88;28.05;;;;;;;4.09;92.83;99092.97;5134256;27;20047;-40
2023/12/02 03:57:36;;;;;;;51.95;27.23;;;;;;;3.97;92.57;99081.19;5134839;27;20027;-40
2023/12/02 04:00:10;;;;;;;55.67;29.27;;;;;;;4.49;91.55;99079.56;5134417;27;20462;-39
2023/12/02 04:02:39;;;;;;;55.50;29.73;;;;;;;4.17;90.55;99080.69;5134422;27;20098;-40
2023/12/02 04:05:10;;;;;;;53.85;27.98;;;;;;;3.86;90.92;99065.81;5134167;27;20019;-39
2023/12/02 04:07:36;;;;;;;51.80;27.50;;;;;;;3.47;92.73;99064.13;5134606;27;20039;-41
2023/12/02 04:10:03;;;;;;;54.42;28.15;;;;;;;3.38;94.11;99054.66;5134141;27;20035;-40
2023/12/02 04:12:29;;;;;;;52.65;26.98;;;;;;;3.46;94.56;99047.50;5134483;27;20023;-40
2023/12/02 04:14:55;;;;;;;54.33;27.63;;;;;;;3.46;93.93;99052.75;5134259;27;20110;-40
2023/12/02 04:17:21;;;;;;;58.65;29.02;;;;;;;3.29;95.52;99040.72;5133939;27;20101;-39
2023/12/02 04:19:47;;;;;;;56.10;27.02;;;;;;;3.19;95.88;99019.91;5134250;27;20038;-39
2023/12/02 04:22:12;;;;;;;60.55;29.17;;;;;;;3.37;95.28;99017.00;5134051;27;20018;-39
2023/12/02 04:24:39;;;;;;;59.13;28.25;;;;;;;3.24;95.31;99020.22;5133652;27;20079;-40
2023/12/02 04:27:05;;;;;;;55.45;27.98;;;;;;;3.28;95.84;99036.47;5133647;27;20031;-39
2023/12/02 04:29:31;;;;;;;52.38;29.42;;;;;;;3.40;95.65;99032.44;5133686;27;20023;-39
2023/12/02 04:31:57;;;;;;;55.67;29.40;;;;;;;3.62;96.07;99046.59;5133995;27;20068;-39
2023/12/02 04:34:22;;;;;;;54.47;27.38;;;;;;;3.49;95.53;99052.44;5133657;27;20102;-40
2023/12/02 04:36:48;;;;;;;59.35;29.55;;;;;;;3.82;96.17;99046.94;5133521;27;20133;-40
2023/12/02 04:39:14;;;;;;;55.40;29.60;;;;;;;3.85;93.94;99074.72;5134037;27;20043;-40
2023/12/02 04:41:40;;;;;;;52.85;28.27;;;;;;;3.57;94.68;99091.03;5133705;27;20034;-39
2023/12/02 04:44:05;;;;;;;52.78;27.58;;;;;;;3.44;94.87;99059.19;5133903;27;20015;-39
2023/12/02 04:46:31;;;;;;;55.03;28.27;;;;;;;3.59;95.22;99059.28;5133436;27;20401;-40
2023/12/02 04:48:57;;;;;;;55.60;27.88;;;;;;;3.62;95.15;99061.56;5131850;27;20047;-40
2023/12/02 04:51:22;;;;;;;54.97;29.35;;;;;;;3.89;95.33;99062.84;5133176;27;20439;-39
2023/12/02 04:53:48;;;;;;;52.10;28.25;;;;;;;3.69;94.56;99049.31;5114341;27;20042;-40
2023/12/02 04:56:13;;;;;;;53.83;27.75;;;;;;;3.52;94.21;99046.00;5132828;27;20134;-39
2023/12/02 04:58:38;;;;;;;56.42;28.85;;;;;;;3.49;96.39;99036.66;5133175;27;20031;-39
2023/12/02 05:01:04;;;;;;;58.30;30.92;;;;;;;3.63;95.61;99045.59;5133670;27;20015;-39
2023/12/02 05:03:29;;;;;;;56.25;28.13;;;;;;;3.71;94.39;99052.59;5133728;27;20446;-40
2023/12/02 05:05:55;;;;;;;59.30;29.45;;;;;;;3.73;96.21;99061.13;5133408;27;20391;-39
2023/12/02 05:08:20;;;;;;;54.28;28.48;;;;;;;3.71;94.38;99065.75;5133027;27;20102;-39
2023/12/02 05:10:46;;;;;;;51.53;28.83;;;;;;;3.75;94.82;99064.44;5133838;27;20088;-26
2023/12/02 05:13:11;;;;;;;56.95;29.02;;;;;;;3.67;93.71;99054.75;5119930;27;20026;-26
2023/12/02 05:15:36;;;;;;;55.13;30.17;;;;;;;3.79;94.30;99035.94;5112386;28;20030;-26
2023/12/02 05:18:02;;;;;;;58.53;32.05;;;;;;;3.72;94.70;99051.63;5125994;27;20455;-26
2023/12/02 05:20:28;;;;;;;59.22;30.92;;;;;;;3.57;96.91;99034.97;5133324;27;20062;-27
2023/12/02 05:22:53;;;;;;;59.45;30.63;;;;;;;3.65;97.74;99042.78;5133323;27;20517;-27
2023/12/02 05:25:19;;;;;;;66.15;33.72;;;;;;;4.13;100.00;99027.56;5133429;27;20383;-26
2023/12/02 05:27:44;;;;;;;58.63;28.20;;;;;;;4.94;100.00;99034.78;5133389;27;20058;-26
2023/12/02 05:30:12;;;;;;;91.47;41.60;;;;;;;7.09;100.00;99055.66;5124267;27;20015;-26
2023/12/02 05:32:38;;;;;;;68.78;36.08;;;;;;;6.81;90.33;99022.13;5112739;28;20028;-27
2023/12/02 05:35:05;;;;;;;57.47;31.77;;;;;;;5.57;89.42;99024.50;5112418;28;20019;-26
2023/12/02 05:37:31;;;;;;;50.60;30.55;;;;;;;5.19;92.50;99022.06;5113002;28;20106;-27
2023/12/02 05:39:56;;;;;;;56.67;30.27;;;;;;;5.62;91.51;99017.66;5132757;27;20099;-26
2023/12/02 05:42:21;;;;;;;58.50;29.85;;;;;;;4.88;92.33;99012.59;5132197;27;20027;-26
2023/12/02 05:44:47;;;;;;;52.08;31.48;;;;;;;4.90;92.97;99036.97;5132846;27;20115;-27
2023/12/02 05:47:12;;;;;;;55.55;30.88;;;;;;;4.50;94.08;99047.78;5129800;27;20034;-27
2023/12/02 05:49:41;;;;;;;55.65;30.85;;;;;;;4.46;97.25;99032.53;5115445;27;20027;-27
2023/12/02 05:52:06;;;;;;;56.45;32.78;;;;;;;5.27;94.38;99040.41;5128850;27;20018;-26
2023/12/02 05:54:32;;;;;;;60.40;34.33;;;;;;;5.17;93.57;99047.81;5137167;27;20505;-27
2023/12/02 05:56:57;;;;;;;58.13;31.00;;;;;;;4.69;94.49;99021.88;5142032;27;20084;-26
2023/12/02 05:59:22;;;;;;;95.18;49.70;;;;;;;4.77;95.03;99042.06;5138024;27;20034;-27
2023/12/02 06:01:48;;;;;;;90.15;47.95;;;;;;;5.18;95.92;99050.28;5134779;27;20023;-26
2023/12/02 06:04:14;;;;;;;59.83;30.75;;;;;;;5.96;92.93;99039.06;5118860;27;20072;-28
2023/12/02 06:06:39;;;;;;;53.28;29.17;;;;;;;6.92;88.45;99055.16;5132413;27;20019;-27
2023/12/02 06:09:05;;;;;;;53.42;28.05;;;;;;;7.20;83.73;99044.50;5132336;27;20031;-27
2023/12/02 06:11:31;;;;;;;54.63;28.05;;;;;;;7.20;81.70;99020.69;5132580;27;20428;-26
2023/12/02 06:13:56;;;;;;;60.60;31.27;;;;;;;6.92;80.94;99046.41;5131857;27;20375;-27
2023/12/02 06:16:22;;;;;;;56.17;29.83;;;;;;;6.39;84.33;99046.94;5127900;27;20035;-26
2023/12/02 06:18:47;;;;;;;59.10;31.15;;;;;;;6.17;84.92;99067.28;5123200;27;20027;-26
2023/12/02 06:21:12;;;;;;;58.38;32.30;;;;;;;5.54;87.70;99072.38;5118960;27;20031;-26
2023/12/02 06:23:38;;;;;;;55.92;31.83;;;;;;;5.99;88.37;99052.72;5132370;27;20019;-28
2023/12/02 06:26:04;;;;;;;60.92;31.63;;;;;;;6.11;87.33;99041.63;5132847;27;20072;-27
2023/12/02 06:28:30;;;;;;;64.05;32.38;;;;;;;5.66;88.40;99045.31;5132590;27;20031;-27
2023/12/02 06:30:57;;;;;;;61.70;33.17;;;;;;;5.54;88.58;99051.25;5132467;27;20095;-27
2023/12/02 06:33:23;;;;;;;60.55;32.78;;;;;;;5.39;90.63;99048.69;5132835;27;20455;-27
2023/12/02 06:35:48;;;;;;;62.42;34.13;;;;;;;6.20;88.38;99036.03;5131428;27;20019;-27
2023/12/02 06:38:13;;;;;;;56.30;31.15;;;;;;;6.00;88.34;99050.91;5134245;27;20171;-26
2023/12/02 06:40:39;;;;;;;53.33;30.80;;;;;;;5.71;89.27;99047.34;5111858;28;20050;-27
2023/12/02 06:43:04;;;;;;;52.15;30.67;;;;;;;5.76;89.61;99052.09;5111645;28;20035;-26
2023/12/02 06:45:30;;;;;;;53.78;30.40;;;;;;;5.58;90.32;99063.91;5112914;28;20111;-27
2023/12/02 06:47:55;;;;;;;54.97;31.23;;;;;;;6.01;90.81;99066.56;5132310;28;20149;-27
2023/12/02 06:50:22;;;;;;;55.92;31.50;;;;;;;6.68;87.78;99053.00;5131989;28;20023;-26
2023/12/02 06:52:47;;;;;;;59.92;31.75;;;;;;;6.25;87.62;99054.75;5132209;28;20034;-27
2023/12/02 06:55:12;;;;;;;53.30;31.67;;;;;;;6.34;88.14;99054.59;5131382;28;20039;-27
2023/12/02 06:57:38;;;;;;;49.78;30.33;;;;;;;6.24;87.69;99070.81;5128584;28;20451;-27
2023/12/02 07:00:05;;;;;;;55.70;30.40;;;;;;;6.18;88.70;99066.28;5121444;28;20075;-26
2023/12/02 07:02:31;;;;;;;54.40;31.00;;;;;;;6.10;88.17;99055.88;5131571;27;20131;-26
2023/12/02 07:04:56;;;;;;;53.72;30.45;;;;;;;5.86;90.37;99058.69;5131619;28;20793;-27
2023/12/02 07:07:21;;;;;;;53.70;30.00;;;;;;;6.16;89.36;99063.03;5131701;28;20016;-27
2023/12/02 07:09:47;;;;;;;49.75;28.40;;;;;;;6.44;89.08;99068.31;5125076;27;20518;-27
2023/12/02 07:12:12;;;;;;;59.83;30.05;;;;;;;6.33;89.71;99084.72;5115524;27;20628;-27
2023/12/02 07:14:38;;;;;;;60.15;35.50;;;;;;;6.36;91.09;99077.22;5114403;28;20080;-27
2023/12/02 07:17:04;;;;;;;54.97;31.38;;;;;;;6.28;91.37;99098.47;5114262;28;20449;-28
2023/12/02 07:19:30;;;;;;;55.08;30.08;;;;;;;6.41;90.48;99084.56;5113963;28;20407;-26
2023/12/02 07:21:55;;;;;;;52.20;30.95;;;;;;;7.07;88.15;99083.31;5114189;28;20023;-27
2023/12/02 07:24:20;;;;;;;52.25;30.63;;;;;;;6.99;87.62;99077.19;5114340;28;20042;-27
2023/12/02 07:26:46;;;;;;;54.10;30.88;;;;;;;6.73;88.28;99058.53;5113372;28;20027;-27
2023/12/02 07:29:11;;;;;;;54.00;30.33;;;;;;;6.55;88.99;99065.16;5113733;28;20081;-27
2023/12/02 07:31:36;;;;;;;52.97;30.20;;;;;;;6.43;89.47;99067.47;5114116;28;20099;-27
2023/12/02 07:34:02;;;;;;;50.75;29.77;;;;;;;6.78;88.64;99082.56;5114703;28;20051;-28
2023/12/02 07:36:27;;;;;;;55.25;30.73;;;;;;;7.22;89.29;99071.56;5114804;28;20089;-27
2023/12/02 07:38:53;;;;;;;46.28;26.65;;;;;;;7.70;85.01;99075.19;5115190;28;20127;-27
2023/12/02 07:41:18;;;;;;;47.42;26.80;;;;;;;7.15;86.72;99061.97;5114907;28;20491;-27
2023/12/02 07:43:43;;;;;;;43.85;24.45;;;;;;;7.06;86.79;99066.63;5114987;28;20034;-28
2023/12/02 07:46:09;;;;;;;46.05;25.92;;;;;;;7.02;86.88;99071.47;5115146;28;20103;-27
2023/12/02 07:48:34;;;;;;;41.15;26.10;;;;;;;7.27;87.38;99084.19;5115369;28;20344;-28
2023/12/02 07:51:03;;;;;;;44.97;25.33;;;;;;;7.79;85.34;99087.22;5133127;27;20050;-26
2023/12/02 07:53:29;;;;;;;40.45;23.92;;;;;;;7.29;85.70;99089.31;5135859;27;20069;-27
2023/12/02 07:55:54;;;;;;;42.88;25.33;;;;;;;6.94;87.64;99084.88;5135051;27;20051;-27
2023/12/02 07:58:19;;;;;;;40.53;23.88;;;;;;;7.22;87.56;99084.00;5135160;27;20027;-27
2023/12/02 08:00:45;;;;;;;45.03;24.58;;;;;;;7.17;87.93;99089.06;5134858;27;20487;-31
2023/12/02 08:03:10;;;;;;;41.85;24.17;;;;;;;7.98;85.13;99107.63;5134808;27;20023;-27
2023/12/02 08:05:35;;;;;;;38.03;23.27;;;;;;;7.59;85.78;99121.59;5135334;27;20019;-28
2023/12/02 08:08:01;;;;;;;38.47;21.00;;;;;;;7.66;84.80;99125.06;5135210;27;20135;-27
2023/12/02 08:10:26;;;;;;;35.05;21.17;;;;;;;7.57;84.65;99120.97;5135216;27;20027;-27
2023/12/02 08:12:51;;;;;;;36.40;22.00;;;;;;;7.58;85.44;99125.25;5135072;27;20494;-27
2023/12/02 08:15:17;;;;;;;38.08;22.48;;;;;;;8.08;85.32;99127.63;5133657;27;20019;-26
2023/12/02 08:17:42;;;;;;;38.15;21.60;;;;;;;8.03;83.24;99136.16;5134937;27;20027;-26
2023/12/02 08:20:08;;;;;;;39.72;23.52;;;;;;;7.93;83.93;99138.38;5134824;27;20050;-26
2023/12/02 08:22:34;;;;;;;41.95;24.38;;;;;;;7.52;85.27;99123.38;5135156;27;20096;-28
2023/12/02 08:24:59;;;;;;;36.75;22.73;;;;;;;7.12;87.36;99107.34;5134522;27;20129;-27
2023/12/02 08:27:25;;;;;;;37.13;22.02;;;;;;;7.65;87.13;99110.19;5134718;27;20075;-26
2023/12/02 08:29:50;;;;;;;34.88;20.95;;;;;;;8.08;83.89;99101.91;5134538;27;20422;-27
2023/12/02 08:32:15;;;;;;;35.25;21.30;;;;;;;7.96;84.24;99109.66;5134656;27;20022;-27
2023/12/02 08:34:42;;;;;;;35.13;20.95;;;;;;;7.89;83.21;99105.38;5134288;27;20471;-27
2023/12/02 08:37:07;;;;;;;34.00;20.95;;;;;;;7.71;84.82;99114.72;5134620;27;20152;-27
2023/12/02 08:39:33;;;;;;;37.72;20.83;;;;;;;7.47;86.00;99102.81;5134294;27;20430;-26
2023/12/02 08:41:59;;;;;;;33.20;21.77;;;;;;;7.87;85.78;99097.63;5134212;27;20122;-27
2023/12/02 08:44:24;;;;;;;37.50;21.85;;;;;;;8.32;83.54;99095.22;5134987;27;20122;-27
2023/12/02 08:46:52;;;;;;;32.50;20.63;;;;;;;7.91;83.35;99085.59;5134359;27;20035;-27
2023/12/02 08:49:18;;;;;;;37.10;21.10;;;;;;;7.88;84.22;99077.22;5134591;27;20022;-28
2023/12/02 08:51:44;;;;;;;38.90;22.20;;;;;;;7.80;84.17;99068.44;5134427;27;20027;-27
2023/12/02 08:54:09;;;;;;;38.28;22.52;;;;;;;8.06;83.89;99058.91;5133571;27;20451;-27
2023/12/02 08:56:35;;;;;;;38.83;21.48;;;;;;;8.20;82.75;99054.41;5133693;27;20039;-26
2023/12/02 08:59:00;;;;;;;34.97;21.00;;;;;;;7.75;84.36;99046.22;5133978;27;20087;-26
2023/12/02 09:01:26;;;;;;;35.22;20.52;;;;;;;7.90;84.05;99054.00;5134039;27;20041;-28
2023/12/02 09:03:52;;;;;;;34.58;21.98;;;;;;;8.38;82.97;99056.47;5134924;27;20027;-31
2023/12/02 09:06:17;;;;;;;37.78;21.42;;;;;;;8.25;82.91;99061.78;5134488;27;20026;-27
2023/12/02 09:08:43;;;;;;;38.10;22.63;;;;;;;8.47;82.52;99027.91;5134402;27;20166;-27
2023/12/02 09:11:08;;;;;;;37.88;22.13;;;;;;;8.61;81.66;99026.88;5134148;27;20019;-28
2023/12/02 09:13:39;;;;;;;37.00;21.00;;;;;;;8.44;82.62;99028.34;5133943;27;20455;-29
2023/12/02 09:16:15;;;;;;;37.08;21.42;;;;;;;8.18;83.47;99017.50;5134206;27;20084;-27
2023/12/02 09:18:40;;;;;;;35.88;21.65;;;;;;;8.36;83.89;99014.25;5115736;27;20054;-27
2023/12/02 09:21:20;;;;;;;37.30;21.08;;;;;;;8.61;82.42;99021.56;5134058;27;20123;-26
2023/12/02 09:23:47;;;;;;;39.00;21.83;;;;;;;8.45;83.01;99001.59;5132634;27;20053;-28
2023/12/02 09:26:28;;;;;;;37.60;22.48;;;;;;;8.51;83.27;99010.56;5131943;27;20027;-26
2023/12/02 09:28:55;;;;;;;37.95;23.50;;;;;;;8.91;81.97;99003.31;5132174;27;20105;-27
2023/12/02 09:31:20;;;;;;;41.03;24.50;;;;;;;8.68;81.45;99008.25;5131886;27;20049;-27
2023/12/02 09:33:54;;;;;;;44.85;25.25;;;;;;;8.43;82.85;99000.97;5132172;27;20019;-27
2023/12/02 09:36:39;;;;;;;44.47;24.95;;;;;;;8.51;82.91;99000.78;5131632;27;20023;-27
2023/12/02 09:39:08;;;;;;;45.75;26.33;;;;;;;8.47;82.92;99004.03;5133124;27;20376;-27
2023/12/02 09:41:51;;;;;;;43.70;25.42;;;;;;;8.44;83.86;98999.16;5133506;27;20023;-27
2023/12/02 09:44:33;;;;;;;41.00;24.63;;;;;;;8.53;83.94;99004.03;5133193;27;20026;-27
2023/12/02 09:47:06;;;;;;;43.88;25.92;;;;;;;8.22;84.93;98994.91;5132854;27;20030;-26
2023/12/02 09:49:55;;;;;;;46.42;26.55;;;;;;;8.37;84.74;98992.00;5133127;27;20023;-27
2023/12/02 09:52:33;;;;;;;47.00;28.05;;;;;;;8.67;83.56;99011.94;5133255;27;20066;-27
2023/12/02 09:55:13;;;;;;;52.50;30.13;;;;;;;8.95;82.40;99006.34;5133028;27;20119;-29
2023/12/02 09:57:56;;;;;;;52.22;32.08;;;;;;;9.12;81.31;98990.72;5132854;27;20080;-27
2023/12/02 10:00:35;;;;;;;46.22;27.23;;;;;;;9.02;81.40;98985.06;5133196;27;20022;-28
2023/12/02 10:03:40;;;;;;;44.92;28.08;;;;;;;9.10;81.29;98976.84;5114444;27;20020;-28
2023/12/02 10:06:26;;;;;;;45.90;27.88;;;;;;;9.06;80.61;98963.19;5132481;27;20398;-27
2023/12/02 10:09:08;;;;;;;45.53;27.50;;;;;;;8.87;82.82;98977.38;5114658;27;20034;-28
2023/12/02 10:11:40;;;;;;;48.20;28.05;;;;;;;8.99;82.70;98957.94;5132969;27;20027;-26
2023/12/02 10:14:12;;;;;;;44.90;27.98;;;;;;;9.08;82.49;98966.47;5132338;27;20050;-27
2023/12/02 10:16:41;;;;;;;52.33;27.65;;;;;;;9.00;82.24;98945.47;5132564;27;20022;-26
2023/12/02 10:19:19;;;;;;;43.05;26.00;;;;;;;8.64;83.77;98938.91;5132737;27;20382;-27
2023/12/02 10:21:49;;;;;;;44.85;25.45;;;;;;;8.67;83.60;98937.69;5132610;27;20518;-28
2023/12/02 10:24:20;;;;;;;42.75;24.38;;;;;;;9.38;81.99;98937.47;5132224;27;20466;-29
2023/12/02 10:27:08;;;;;;;40.35;25.00;;;;;;;9.22;81.84;98942.50;5132585;27;20030;-28
2023/12/02 10:29:49;;;;;;;40.65;25.23;;;;;;;9.11;81.93;98942.16;5132777;27;20027;-27
2023/12/02 10:32:36;;;;;;;44.05;25.55;;;;;;;8.85;83.73;98931.66;5132271;27;20031;-27
2023/12/02 10:35:17;;;;;;;46.85;25.90;;;;;;;9.30;81.07;98926.31;5132231;27;20027;-28
2023/12/02 10:37:43;;;;;;;45.78;25.30;;;;;;;9.15;78.56;98930.06;5132486;27;20039;-28
2023/12/02 10:40:11;;;;;;;48.35;28.40;;;;;;;9.22;79.49;98932.69;5132585;28;20027;-29
2023/12/02 10:43:04;;;;;;;50.20;28.60;;;;;;;9.69;80.68;98927.84;5131841;28;20099;-27
2023/12/02 10:45:31;;;;;;;50.28;28.20;;;;;;;9.20;78.87;98914.31;5131289;28;20023;-27
2023/12/02 10:47:58;;;;;;;44.28;27.13;;;;;;;9.38;80.30;98918.88;5135227;27;20110;-28
2023/12/02 10:50:25;;;;;;;44.80;27.60;;;;;;;9.74;80.12;98921.88;5136395;27;20069;-26
2023/12/02 10:53:01;;;;;;;48.92;28.52;;;;;;;9.35;79.42;98905.25;5136171;27;20042;-27
2023/12/02 10:55:31;;;;;;;49.05;27.20;;;;;;;9.34;80.88;98901.75;5135619;27;20625;-28
2023/12/02 10:57:59;;;;;;;53.10;28.67;;;;;;;9.95;79.26;98897.53;5118894;27;20430;-26
2023/12/02 11:00:29;;;;;;;47.88;28.65;;;;;;;9.37;79.00;98876.63;5115050;27;20060;-27
2023/12/02 11:03:05;;;;;;;43.33;27.60;;;;;;;9.90;80.02;98885.94;5114954;28;20497;-28
2023/12/02 11:05:45;;;;;;;47.53;27.45;;;;;;;9.88;78.69;98870.25;5114934;28;20098;-27
2023/12/02 11:08:18;;;;;;;48.50;28.30;;;;;;;9.46;80.26;98885.97;5115142;28;20031;-27
2023/12/02 11:10:49;;;;;;;46.78;28.02;;;;;;;9.29;80.62;98885.69;5114942;28;20261;-27
2023/12/02 11:13:23;;;;;;;50.72;28.40;;;;;;;9.29;83.52;98892.81;5115199;28;20020;-27
2023/12/02 11:16:26;;;;;;;48.67;28.65;;;;;;;10.13;82.00;98888.00;5115349;28;20110;-28
2023/12/02 11:19:11;;;;;;;44.67;25.88;;;;;;;9.93;79.00;98888.19;5115559;27;20386;-27
2023/12/02 11:21:58;;;;;;;46.60;25.48;;;;;;;9.38;81.39;98883.56;5118691;27;20032;-39
2023/12/02 11:24:29;;;;;;;37.85;23.25;;;;;;;11.13;77.91;98884.06;5124240;27;20398;-38
2023/12/02 11:27:32;;;;;;;40.40;22.63;;;;;;;10.87;76.27;98885.25;5136193;27;20059;-42